createdAt,value
2022-11-26T00:00:19.339Z,13.13
2022-11-26T00:02:48.601Z,12.37
2022-11-26T00:05:16.977Z,13.40
2022-11-26T00:07:54.875Z,12.50
2022-11-26T00:10:23.906Z,13.10
2022-11-26T00:12:51.723Z,13.13
2022-11-26T00:15:21.352Z,12.30
2022-11-26T00:17:51.176Z,13.33
2022-11-26T00:20:19.014Z,13.37
2022-11-26T00:22:48.132Z,12.43
2022-11-26T00:25:20.500Z,12.07
2022-11-26T00:27:48.344Z,11.53
2022-11-26T00:30:17.872Z,12.73
2022-11-26T00:32:45.561Z,12.30
2022-11-26T00:35:14.716Z,12.73
2022-11-26T00:37:43.607Z,13.40
2022-11-26T00:40:18.932Z,14.07
2022-11-26T00:42:46.771Z,13.33
2022-11-26T00:45:21.843Z,14.13
2022-11-26T00:47:49.630Z,13.80
2022-11-26T00:50:20.299Z,13.30
2022-11-26T00:52:48.474Z,13.13
2022-11-26T00:55:20.777Z,13.10
2022-11-26T00:57:48.468Z,13.43
2022-11-26T01:00:17.787Z,12.23
2022-11-26T01:02:45.522Z,12.40
2022-11-26T01:05:13.403Z,11.93
2022-11-26T01:07:42.728Z,12.23
2022-11-26T01:10:16.744Z,12.40
2022-11-26T01:12:44.375Z,11.23
2022-11-26T01:15:12.445Z,11.97
2022-11-26T01:17:40.168Z,11.93
2022-11-26T01:20:18.125Z,11.50
2022-11-26T01:22:48.697Z,10.47
2022-11-26T01:25:17.688Z,10.90
2022-11-26T01:27:51.012Z,11.10
2022-11-26T01:30:31.184Z,10.73
2022-11-26T01:33:04.189Z,11.17
2022-11-26T01:35:40.829Z,10.60
2022-11-26T01:38:15.982Z,10.87
2022-11-26T01:41:04.991Z,9.63
2022-11-26T01:43:35.782Z,9.73
2022-11-26T01:46:05.702Z,9.93
2022-11-26T01:48:39.573Z,9.10
2022-11-26T01:51:13.666Z,10.40
2022-11-26T01:53:52.764Z,10.10
2022-11-26T01:56:33.873Z,9.57
2022-11-26T01:59:06.013Z,9.00
2022-11-26T02:01:38.962Z,10.77
2022-11-26T02:04:22.117Z,9.70
2022-11-26T02:07:10.622Z,9.67
2022-11-26T02:10:13.378Z,9.53
2022-11-26T02:12:50.693Z,9.13
2022-11-26T02:15:18.581Z,9.03
2022-11-26T02:18:00.769Z,9.40
2022-11-26T02:21:07.758Z,9.97
2022-11-26T02:24:01.357Z,10.00
2022-11-26T02:27:04.876Z,10.43
2022-11-26T02:30:19.616Z,9.07
2022-11-26T02:32:57.485Z,10.37
2022-11-26T02:35:41.562Z,9.17
2022-11-26T02:38:41.263Z,10.20
2022-11-26T02:44:48.348Z,10.10
2022-11-26T02:47:33.206Z,10.50
2022-11-26T02:53:17.595Z,9.63
2022-11-26T02:55:48.322Z,10.03
2022-11-26T02:58:16.332Z,9.27
2022-11-26T03:00:49.764Z,10.37
2022-11-26T03:03:24.259Z,9.63
2022-11-26T03:05:58.721Z,9.37
2022-11-26T03:08:31.008Z,11.33
2022-11-26T03:11:01.282Z,10.77
2022-11-26T03:13:31.959Z,11.10
2022-11-26T03:16:08.053Z,11.33
2022-11-26T03:18:36.327Z,10.93
2022-11-26T03:21:11.875Z,14.13
2022-11-26T03:23:39.943Z,14.13
2022-11-26T03:26:12.442Z,14.07
2022-11-26T03:28:43.355Z,13.10
2022-11-26T03:31:13.776Z,14.67
2022-11-26T03:33:55.581Z,14.47
2022-11-26T03:36:37.576Z,14.43
2022-11-26T03:39:27.036Z,13.57
2022-11-26T03:42:41.607Z,15.00
2022-11-26T03:45:18.022Z,13.13
2022-11-26T03:47:45.964Z,14.13
2022-11-26T03:50:13.960Z,13.13
2022-11-26T03:52:46.330Z,13.90
2022-11-26T03:55:15.172Z,13.30
2022-11-26T03:57:42.924Z,13.27
2022-11-26T04:00:11.502Z,13.57
2022-11-26T04:02:39.313Z,14.87
2022-11-26T04:05:07.887Z,14.23
2022-11-26T04:07:35.680Z,14.97
2022-11-26T04:10:05.370Z,15.83
2022-11-26T04:12:33.168Z,15.60
2022-11-26T04:15:00.819Z,15.53
2022-11-26T04:17:28.521Z,14.77
2022-11-26T04:19:56.203Z,14.23
2022-11-26T04:22:23.979Z,16.30
2022-11-26T04:24:51.721Z,16.73
2022-11-26T04:27:20.898Z,16.27
2022-11-26T04:29:48.654Z,17.67
2022-11-26T04:32:16.365Z,17.30
2022-11-26T04:34:44.004Z,17.30
2022-11-26T04:37:11.688Z,17.77
2022-11-26T04:39:39.340Z,17.13
2022-11-26T04:42:07.088Z,17.17
2022-11-26T04:44:36.197Z,17.47
2022-11-26T04:47:04.180Z,17.80
2022-11-26T04:49:31.853Z,17.37
2022-11-26T04:51:59.536Z,16.90
2022-11-26T04:54:27.157Z,18.37
2022-11-26T04:56:54.848Z,17.00
2022-11-26T04:59:22.601Z,17.57
2022-11-26T05:01:51.720Z,17.50
2022-11-26T05:04:20.167Z,17.57
2022-11-26T05:06:47.838Z,16.57
2022-11-26T05:09:15.640Z,17.27
2022-11-26T05:11:43.274Z,16.37
2022-11-26T05:14:10.979Z,16.23
2022-11-26T05:16:38.683Z,16.33
2022-11-26T05:19:07.798Z,15.93
2022-11-26T05:21:35.463Z,17.43
2022-11-26T05:24:03.263Z,18.10
2022-11-26T05:26:31.025Z,15.73
2022-11-26T05:28:58.717Z,16.40
2022-11-26T05:31:26.353Z,16.37
2022-11-26T05:33:54.127Z,15.40
2022-11-26T05:36:23.208Z,16.53
2022-11-26T05:38:50.867Z,18.10
2022-11-26T05:41:18.524Z,14.67
2022-11-26T05:43:46.260Z,16.03
2022-11-26T05:46:13.948Z,16.60
2022-11-26T05:48:41.676Z,16.97
2022-11-26T05:51:09.825Z,16.23
2022-11-26T05:53:38.901Z,15.77
2022-11-26T05:56:06.973Z,17.50
2022-11-26T05:58:34.787Z,16.23
2022-11-26T06:01:02.479Z,16.10
2022-11-26T06:03:30.224Z,15.77
2022-11-26T06:05:57.855Z,17.40
2022-11-26T06:08:25.569Z,18.00
2022-11-26T06:10:54.592Z,17.37
2022-11-26T06:13:22.259Z,16.50
2022-11-26T06:15:50.063Z,16.80
2022-11-26T06:18:18.199Z,17.70
2022-11-26T06:20:45.900Z,15.60
2022-11-26T06:23:13.601Z,17.27
2022-11-26T06:25:41.787Z,14.57
2022-11-26T06:28:11.057Z,15.20
2022-11-26T06:30:38.756Z,16.53
2022-11-26T06:33:06.665Z,14.57
2022-11-26T06:35:44.622Z,13.57
2022-11-26T06:38:12.404Z,13.67
2022-11-26T06:40:40.065Z,13.87
2022-11-26T06:43:08.394Z,13.90
2022-11-26T06:45:37.617Z,12.97
2022-11-26T06:48:05.747Z,13.23
2022-11-26T06:50:52.890Z,12.30
2022-11-26T06:53:23.120Z,12.63
2022-11-26T06:55:50.899Z,12.63
2022-11-26T06:58:18.757Z,12.00
2022-11-26T07:00:47.817Z,12.03
2022-11-26T07:03:19.762Z,10.83
2022-11-26T07:05:50.237Z,12.17
2022-11-26T07:08:17.978Z,11.23
2022-11-26T07:10:49.042Z,11.10
2022-11-26T07:13:17.174Z,10.40
2022-11-26T07:15:45.095Z,10.10
2022-11-26T07:18:14.278Z,10.80
2022-11-26T07:20:42.042Z,11.40
2022-11-26T07:23:09.773Z,11.47
2022-11-26T07:25:37.809Z,10.70
2022-11-26T07:28:05.727Z,10.93
2022-11-26T07:30:33.624Z,10.13
2022-11-26T07:33:01.375Z,9.87
2022-11-26T07:35:33.004Z,10.77
2022-11-26T07:38:00.719Z,11.10
2022-11-26T07:40:28.475Z,9.90
2022-11-26T07:42:56.268Z,9.03
2022-11-26T07:45:24.090Z,8.43
2022-11-26T07:47:51.771Z,9.00
2022-11-26T07:50:19.576Z,8.20
2022-11-26T07:52:48.664Z,8.80
2022-11-26T07:55:16.887Z,8.67
2022-11-26T07:57:44.646Z,8.77
2022-11-26T08:00:13.261Z,8.43
2022-11-26T08:02:41.153Z,8.43
2022-11-26T08:05:09.083Z,7.80
2022-11-26T08:07:36.879Z,7.60
2022-11-26T08:10:07.156Z,8.30
2022-11-26T08:12:34.833Z,7.40
2022-11-26T08:15:02.789Z,7.20
2022-11-26T08:17:30.600Z,7.53
2022-11-26T08:19:58.277Z,7.10
2022-11-26T08:22:25.964Z,7.13
2022-11-26T08:24:53.891Z,6.33
2022-11-26T08:27:23.014Z,6.67
2022-11-26T08:29:50.704Z,6.20
2022-11-26T08:32:18.495Z,6.13
2022-11-26T08:34:46.137Z,5.30
2022-11-26T08:37:13.901Z,5.17
2022-11-26T08:39:41.670Z,5.53
2022-11-26T08:42:09.368Z,5.50
2022-11-26T08:44:38.593Z,5.60
2022-11-26T08:47:06.482Z,5.10
2022-11-26T08:49:34.317Z,9.20
2022-11-26T08:52:02.172Z,5.57
2022-11-26T08:54:29.965Z,4.93
2022-11-26T08:56:57.764Z,5.23
2022-11-26T08:59:25.471Z,5.20
2022-11-26T09:01:55.169Z,5.67
2022-11-26T09:04:23.090Z,4.80
2022-11-26T09:06:50.903Z,4.80
2022-11-26T09:09:18.586Z,4.90
2022-11-26T09:11:48.498Z,4.90
2022-11-26T09:14:16.908Z,4.93
2022-11-26T09:16:44.836Z,4.40
2022-11-26T09:19:14.534Z,4.40
2022-11-26T09:21:42.569Z,4.75
2022-11-26T09:24:10.587Z,4.75
2022-11-26T09:26:38.516Z,4.78
2022-11-26T09:29:06.400Z,5.10
2022-11-26T09:31:34.267Z,4.28
2022-11-26T09:34:02.462Z,4.70
2022-11-26T09:36:31.534Z,4.50
2022-11-26T09:39:00.008Z,4.40
2022-11-26T09:41:39.724Z,4.82
2022-11-26T09:44:40.926Z,4.88
2022-11-26T09:47:13.217Z,4.88
2022-11-26T09:49:47.165Z,5.20
2022-11-26T09:52:16.888Z,4.30
2022-11-26T09:54:44.712Z,5.43
2022-11-26T09:57:19.591Z,6.95
2022-11-26T09:59:47.610Z,4.80
2022-11-26T10:02:15.610Z,4.93
2022-11-26T10:04:43.511Z,4.25
2022-11-26T10:07:21.974Z,4.63
2022-11-26T10:09:54.868Z,4.13
2022-11-26T10:12:28.108Z,4.70
2022-11-26T10:14:58.193Z,5.60
2022-11-26T10:17:30.849Z,5.10
2022-11-26T10:20:09.859Z,4.65
2022-11-26T10:22:40.163Z,4.75
2022-11-26T10:25:14.443Z,4.78
2022-11-26T10:27:42.956Z,6.35
2022-11-26T10:30:17.447Z,5.05
2022-11-26T10:32:45.322Z,5.90
2022-11-26T10:35:15.459Z,4.60
2022-11-26T10:37:44.653Z,4.28
2022-11-26T10:40:21.369Z,4.35
2022-11-26T10:42:56.791Z,4.00
2022-11-26T10:45:26.499Z,4.53
2022-11-26T10:47:54.293Z,4.15
2022-11-26T10:53:21.360Z,4.10
2022-11-26T10:55:49.103Z,4.43
2022-11-26T10:58:17.882Z,4.63
2022-11-26T11:00:47.084Z,4.15
2022-11-26T11:03:16.881Z,4.22
2022-11-26T11:05:44.904Z,4.50
2022-11-26T11:08:14.753Z,3.63
2022-11-26T11:10:54.355Z,3.90
2022-11-26T11:13:22.190Z,4.20
2022-11-26T11:15:50.206Z,3.67
2022-11-26T11:18:20.214Z,4.07
2022-11-26T11:20:53.453Z,3.53
2022-11-26T11:23:34.723Z,3.33
2022-11-26T11:26:11.842Z,3.40
2022-11-26T11:28:42.708Z,3.97
2022-11-26T11:31:12.446Z,4.72
2022-11-26T11:33:40.388Z,3.63
2022-11-26T11:36:20.228Z,3.47
2022-11-26T11:38:49.493Z,3.80
2022-11-26T11:41:25.561Z,4.13
2022-11-26T11:43:57.951Z,4.67
2022-11-26T11:46:38.629Z,3.90
2022-11-26T11:49:15.348Z,3.37
2022-11-26T11:51:46.001Z,3.77
2022-11-26T11:54:16.833Z,3.77
2022-11-26T11:56:50.542Z,3.97
2022-11-26T11:59:58.468Z,3.73
2022-11-26T12:02:35.140Z,3.60
2022-11-26T12:05:15.362Z,4.10
2022-11-26T12:07:43.761Z,3.63
2022-11-26T12:10:15.142Z,3.97
2022-11-26T12:12:47.683Z,3.07
2022-11-26T12:15:23.435Z,3.90
2022-11-26T12:17:52.957Z,3.90
2022-11-26T12:20:23.824Z,3.97
2022-11-26T12:22:53.912Z,4.30
2022-11-26T12:25:25.706Z,4.13
2022-11-26T12:27:58.178Z,3.73
2022-11-26T12:30:29.525Z,3.80
2022-11-26T12:33:00.668Z,3.17
2022-11-26T12:35:29.694Z,4.03
2022-11-26T12:37:59.174Z,4.40
2022-11-26T12:40:31.646Z,3.47
2022-11-26T12:43:03.205Z,3.60
2022-11-26T12:45:43.797Z,3.17
2022-11-26T12:48:17.433Z,3.50
2022-11-26T12:50:48.073Z,3.70
2022-11-26T12:53:18.608Z,3.53
2022-11-26T12:55:49.687Z,4.30
2022-11-26T12:58:20.703Z,3.37
2022-11-26T13:00:49.653Z,3.70
2022-11-26T13:03:18.853Z,3.97
2022-11-26T13:05:51.827Z,4.30
2022-11-26T13:08:35.476Z,4.00
2022-11-26T13:11:11.758Z,4.07
2022-11-26T13:13:44.948Z,3.23
2022-11-26T13:16:16.915Z,3.60
2022-11-26T13:18:45.793Z,3.43
2022-11-26T13:21:24.411Z,3.77
2022-11-26T13:24:00.756Z,3.57
2022-11-26T13:26:36.340Z,3.97
2022-11-26T13:29:16.509Z,3.87
2022-11-26T13:31:51.934Z,3.67
2022-11-26T13:34:25.874Z,3.60
2022-11-26T13:37:09.208Z,3.33
2022-11-26T13:39:47.621Z,3.60
2022-11-26T13:42:23.241Z,3.50
2022-11-26T13:45:02.593Z,3.57
2022-11-26T13:47:31.399Z,3.07
2022-11-26T13:50:00.860Z,3.27
2022-11-26T13:52:30.768Z,3.07
2022-11-26T13:54:59.840Z,3.93
2022-11-26T13:57:32.682Z,4.00
2022-11-26T14:00:01.959Z,3.53
2022-11-26T14:02:47.405Z,3.10
2022-11-26T14:05:16.119Z,2.93
2022-11-26T14:07:44.199Z,3.47
2022-11-26T14:10:47.872Z,3.53
2022-11-26T14:13:16.285Z,4.03
2022-11-26T14:15:59.438Z,3.30
2022-11-26T14:19:07.146Z,3.07
2022-11-26T14:21:58.467Z,2.97
2022-11-26T14:24:54.234Z,3.13
2022-11-26T14:27:22.892Z,3.70
2022-11-26T14:29:55.000Z,3.03
2022-11-26T14:32:26.267Z,3.47
2022-11-26T14:34:54.580Z,3.77
2022-11-26T14:37:23.086Z,3.23
2022-11-26T14:39:58.847Z,2.53
2022-11-26T14:42:26.808Z,3.57
2022-11-26T14:45:13.578Z,3.50
2022-11-26T14:47:45.632Z,3.37
2022-11-26T14:50:14.650Z,3.10
2022-11-26T14:52:43.132Z,3.43
2022-11-26T14:55:17.573Z,3.50
2022-11-26T14:57:46.896Z,3.10
2022-11-26T15:00:23.187Z,3.60
2022-11-26T15:02:52.865Z,3.37
2022-11-26T15:05:27.465Z,4.10
2022-11-26T15:08:00.215Z,3.47
2022-11-26T15:10:28.658Z,3.13
2022-11-26T15:12:57.486Z,3.67
2022-11-26T15:15:25.580Z,3.27
2022-11-26T15:17:57.380Z,21.27
2022-11-26T15:20:25.249Z,5.97
2022-11-26T15:22:53.544Z,3.97
2022-11-26T15:25:22.930Z,3.30
2022-11-26T15:27:55.008Z,3.43
2022-11-26T15:30:24.475Z,3.77
2022-11-26T15:32:59.595Z,3.73
2022-11-26T15:35:27.748Z,4.30
2022-11-26T15:37:55.903Z,3.77
2022-11-26T15:40:24.822Z,3.73
2022-11-26T15:43:10.822Z,3.30
2022-11-26T15:45:41.479Z,3.70
2022-11-26T15:48:27.628Z,4.43
2022-11-26T15:50:58.867Z,3.43
2022-11-26T15:53:28.071Z,3.73
2022-11-26T15:55:56.105Z,3.40
2022-11-26T15:58:27.273Z,4.20
2022-11-26T16:00:57.003Z,3.60
2022-11-26T16:03:46.695Z,3.57
2022-11-26T16:06:29.753Z,3.97
2022-11-26T16:08:59.855Z,3.67
2022-11-26T16:11:28.517Z,3.87
2022-11-26T16:13:56.440Z,3.90
2022-11-26T16:16:25.187Z,3.77
2022-11-26T16:18:55.783Z,4.07
2022-11-26T16:21:24.985Z,3.57
2022-11-26T16:23:53.497Z,3.67
2022-11-26T16:26:21.258Z,3.57
2022-11-26T16:28:49.269Z,3.77
2022-11-26T16:31:17.593Z,3.67
2022-11-26T16:33:45.911Z,3.37
2022-11-26T16:36:22.223Z,3.70
2022-11-26T16:38:50.393Z,3.47
2022-11-26T16:41:20.160Z,3.10
2022-11-26T16:43:48.096Z,4.23
2022-11-26T16:46:17.304Z,3.93
2022-11-26T16:48:45.178Z,4.50
2022-11-26T16:51:12.816Z,4.03
2022-11-26T16:53:41.961Z,4.50
2022-11-26T16:58:45.706Z,3.60
2022-11-26T17:01:13.337Z,3.90
2022-11-26T17:03:41.281Z,3.30
2022-11-26T17:06:13.479Z,3.77
2022-11-26T17:08:47.969Z,3.70
2022-11-26T17:11:17.340Z,3.60
2022-11-26T17:13:45.192Z,4.17
2022-11-26T17:16:13.961Z,4.50
2022-11-26T17:18:41.658Z,3.00
2022-11-26T17:21:09.387Z,3.70
2022-11-26T17:23:37.042Z,4.07
2022-11-26T17:26:12.124Z,3.97
2022-11-26T17:28:39.746Z,4.17
2022-11-26T17:31:07.482Z,4.20
2022-11-26T17:33:35.136Z,3.67
2022-11-26T17:36:03.569Z,4.00
2022-11-26T17:38:31.276Z,3.70
2022-11-26T17:40:58.923Z,3.57
2022-11-26T17:43:27.930Z,3.77
2022-11-26T17:45:55.715Z,4.30
2022-11-26T17:48:26.681Z,4.00
2022-11-26T17:50:54.560Z,4.60
2022-11-26T17:53:22.287Z,4.20
2022-11-26T17:55:50.123Z,3.40
2022-11-26T17:58:17.729Z,3.50
2022-11-26T18:00:46.746Z,3.80
2022-11-26T18:03:14.416Z,5.90
2022-11-26T18:05:42.587Z,3.53
2022-11-26T18:08:10.280Z,3.73
2022-11-26T18:10:40.240Z,6.00
2022-11-26T18:13:07.935Z,8.80
2022-11-26T18:15:35.725Z,2.83
2022-11-26T18:18:04.816Z,3.40
2022-11-26T18:20:34.123Z,4.13
2022-11-26T18:23:02.124Z,4.20
2022-11-26T18:25:30.079Z,3.10
2022-11-26T18:27:57.725Z,2.50
2022-11-26T18:30:25.804Z,3.20
2022-11-26T18:32:53.468Z,3.87
2022-11-26T18:35:23.597Z,4.00
2022-11-26T18:37:51.617Z,2.63
2022-11-26T18:40:19.352Z,3.47
2022-11-26T18:42:47.026Z,3.67
2022-11-26T18:45:15.651Z,4.10
2022-11-26T18:47:43.396Z,3.43
2022-11-26T18:50:13.308Z,3.40
2022-11-26T18:52:42.407Z,3.90
2022-11-26T18:55:10.480Z,3.83
2022-11-26T18:57:41.184Z,3.13
2022-11-26T19:00:10.968Z,4.30
2022-11-26T19:02:38.693Z,3.70
2022-11-26T19:05:08.558Z,3.97
2022-11-26T19:07:36.371Z,4.03
2022-11-26T19:10:06.428Z,3.83
2022-11-26T19:12:34.176Z,3.37
2022-11-26T19:15:01.944Z,6.97
2022-11-26T19:17:29.547Z,3.83
2022-11-26T19:19:57.338Z,4.43
2022-11-26T19:22:25.115Z,3.93
2022-11-26T19:24:53.203Z,3.77
2022-11-26T19:27:22.324Z,3.87
2022-11-26T19:29:50.043Z,3.70
2022-11-26T19:32:17.864Z,3.77
2022-11-26T19:34:45.557Z,5.37
2022-11-26T19:37:13.249Z,4.43
2022-11-26T19:39:41.286Z,3.40
2022-11-26T19:42:09.277Z,3.90
2022-11-26T19:44:38.419Z,4.13
2022-11-26T19:47:06.247Z,4.17
2022-11-26T19:49:34.382Z,4.03
2022-11-26T19:52:02.060Z,9.00
2022-11-26T19:54:29.724Z,4.70
2022-11-26T19:56:57.439Z,4.13
2022-11-26T19:59:25.120Z,4.07
2022-11-26T20:01:55.739Z,3.50
2022-11-26T20:04:23.783Z,4.83
2022-11-26T20:06:51.612Z,4.70
2022-11-26T20:09:19.821Z,3.93
2022-11-26T20:11:50.607Z,4.20
2022-11-26T20:14:18.372Z,3.87
2022-11-26T20:16:46.252Z,3.77
2022-11-26T20:19:15.385Z,4.40
2022-11-26T20:21:43.071Z,3.70
2022-11-26T20:24:12.770Z,3.97
2022-11-26T20:26:41.431Z,4.43
2022-11-26T20:29:10.024Z,4.03
2022-11-26T20:31:40.003Z,4.00
2022-11-26T20:34:07.854Z,4.83
2022-11-26T20:36:37.683Z,4.17
2022-11-26T20:39:05.372Z,5.03
2022-11-26T20:41:37.728Z,4.40
2022-11-26T20:44:05.620Z,4.07
2022-11-26T20:46:33.440Z,3.80
2022-11-26T20:49:01.439Z,4.63
2022-11-26T20:51:29.154Z,4.47
2022-11-26T20:54:00.214Z,4.13
2022-11-26T20:56:28.192Z,4.33
2022-11-26T20:58:56.096Z,4.10
2022-11-26T21:01:31.672Z,4.97
2022-11-26T21:04:00.825Z,4.00
2022-11-26T21:06:30.322Z,4.47
2022-11-26T21:09:00.585Z,3.97
2022-11-26T21:11:28.352Z,4.47
2022-11-26T21:13:56.180Z,5.07
2022-11-26T21:16:23.892Z,7.80
2022-11-26T21:18:53.797Z,4.60
2022-11-26T21:21:21.817Z,5.50
2022-11-26T21:23:49.519Z,4.30
2022-11-26T21:26:19.877Z,4.43
2022-11-26T21:28:51.394Z,4.70
2022-11-26T21:31:19.377Z,4.33
2022-11-26T21:33:47.499Z,5.00
2022-11-26T21:36:17.297Z,4.93
2022-11-26T21:38:48.469Z,5.03
2022-11-26T21:41:16.394Z,4.80
2022-11-26T21:43:45.962Z,4.47
2022-11-26T21:46:15.580Z,5.43
2022-11-26T21:48:43.447Z,5.03
2022-11-26T21:51:12.660Z,5.03
2022-11-26T21:53:40.626Z,5.17
2022-11-26T21:56:09.002Z,4.80
2022-11-26T21:58:37.124Z,4.40
2022-11-26T22:01:12.386Z,4.10
2022-11-26T22:03:40.898Z,5.07
2022-11-26T22:06:08.995Z,6.27
2022-11-26T22:08:36.861Z,5.00
2022-11-26T22:11:09.329Z,6.80
2022-11-26T22:13:37.088Z,3.97
2022-11-26T22:16:13.253Z,4.20
2022-11-26T22:18:44.175Z,4.57
2022-11-26T22:21:12.798Z,5.27
2022-11-26T22:23:40.818Z,4.27
2022-11-26T22:26:08.842Z,4.57
2022-11-26T22:28:38.505Z,4.07
2022-11-26T22:31:13.306Z,4.20
2022-11-26T22:33:42.847Z,4.40
2022-11-26T22:36:11.546Z,3.87
2022-11-26T22:38:39.796Z,3.93
2022-11-26T22:41:08.469Z,3.60
2022-11-26T22:43:36.233Z,4.80
2022-11-26T22:46:04.661Z,3.60
2022-11-26T22:48:32.414Z,3.87
2022-11-26T22:51:01.651Z,3.40
2022-11-26T22:53:29.545Z,3.67
2022-11-26T22:55:59.104Z,3.60
2022-11-26T22:58:27.688Z,3.53
2022-11-26T23:00:56.856Z,4.43
2022-11-26T23:03:25.160Z,4.03
2022-11-26T23:05:53.529Z,4.20
2022-11-26T23:08:22.692Z,3.57
2022-11-26T23:10:50.518Z,3.70
2022-11-26T23:13:18.432Z,3.77
2022-11-26T23:15:46.656Z,3.07
2022-11-26T23:18:15.362Z,3.40
2022-11-26T23:20:43.301Z,4.43
2022-11-26T23:23:11.094Z,3.47
2022-11-26T23:25:40.662Z,3.73
2022-11-26T23:28:08.512Z,3.77
2022-11-26T23:30:36.413Z,3.27
2022-11-26T23:33:04.114Z,3.30
2022-11-26T23:35:31.799Z,3.67
2022-11-26T23:37:59.433Z,3.80
2022-11-26T23:40:27.142Z,3.17
2022-11-26T23:42:56.298Z,4.13
2022-11-26T23:45:24.069Z,3.57
2022-11-26T23:47:51.689Z,3.97
2022-11-26T23:50:19.468Z,3.40
2022-11-26T23:52:47.136Z,3.80
2022-11-26T23:55:14.813Z,3.60
2022-11-26T23:57:42.427Z,3.87
